Izmir Cigli Air Force Base, Turkey

5:55 AM EEST on July 28, 2016 (GMT +0300)
Adnan Menderes | | Change Station

Elev 394 ft 38.29 °N, 27.15 °E | Updated 35 minutes ago

Clear
Clear
75 °F
Feels Like 75 °F
N
12
Wind Variable Wind from North

Today
High -- | Low -- °F
--% Chance of Precip.
Yesterday
High -- | Low -- °F
Precip. -- in
Pressure 29.77 in
Visibility -9999.0 miles
Clouds
Dew Point 64 °F
Humidity 69%
Rainfall 0.00 in
Snow Depth Not available.
6:10 AM 8:25 PM
Last Quarter, 37% visible
METAR LTBJ 280220Z 36010KT CAVOK 24/18 Q1008 NOSIG RMK RWY16 35011KT
Pressure 29.77 in
Visibility -9999.0 miles
Clouds
Dew Point 64 °F
Humidity 69%
Rainfall 0.00 in
Snow Depth Not available.
6:10 AM 8:25 PM
Last Quarter, 37% visible
METAR LTBJ 280220Z 36010KT CAVOK 24/18 Q1008 NOSIG RMK RWY16 35011KT

10-Day Weather Forecast

×

Almanac

Astronomy

Jul. 28, 2016 Rise Set
Actual Time
Civil Twilight
Nautical Twilight
Astronomical Twilight
Moon
Length of Visible Light
Length of Day
Tomorrow will be .
, % of the Moon is Illuminated

Today's Extremes

Country Highs Country Lows

Community

WunderPhotos

Upload Photos

1,928,022 photos uploaded!

WunderBlog® & News

Nearby

Air Quality

  Air Quality AQ Index Pollutant
Not available.

Snow Depth

Station Depth Elevation

Earthquake Activity

City Distance Mag. Time & Date
Minimum magnitude displayed is 2.5.

Coastal Water Temperatures

Place Temperature

Stations

Nearby Weather Stations

Station Location Temp. Windchill Dew Point Humidity Wind Precip. Elev Updated Type